Time;durP1;ratioP1;P1;durP2;ratioP2;P2;SDS_P1;SDS_P2;PMS_P1;PMS_P2;Temp;Humidity;BMP_temperature;BMP_pressure;BME280_temperature;BME280_humidity;BME280_pressure;Samples;Min_cycle;Max_cycle;Signal;HPM_P1;HPM_P2
2021/01/17 00:01:04;;;;;;;1999.90;999.90;;;;;;;;;;5045808;28;20048;-78
2021/01/17 00:03:31;;;;;;;1999.90;999.90;;;;;;;;;;5042354;28;20021;-79
2021/01/17 00:05:56;;;;;;;1999.90;999.90;;;;;;;;;;5035894;28;20032;-79
2021/01/17 00:08:22;;;;;;;1999.90;999.90;;;;;;;;;;5044825;28;20385;-79
2021/01/17 00:10:47;;;;;;;1999.90;999.90;;;;;;;;;;5044794;28;20028;-79
2021/01/17 00:13:14;;;;;;;1999.90;999.90;;;;;;;;;;5048340;28;20397;-79
2021/01/17 00:15:39;;;;;;;1999.90;999.90;;;;;;;;;;5044718;28;20446;-80
2021/01/17 00:18:05;;;;;;;1999.90;999.90;;;;;;;;;;5048346;28;20035;-79
2021/01/17 00:20:31;;;;;;;1999.90;999.90;;;;;;;;;;5049755;28;20029;-79
2021/01/17 00:23:03;;;;;;;1999.90;999.90;;;;;;;;;;5048734;28;20024;-78
2021/01/17 00:25:29;;;;;;;1999.90;999.90;;;;;;;;;;5044042;28;20137;-79
2021/01/17 00:27:56;;;;;;;1999.90;999.90;;;;;;;;;;5042456;28;20093;-79
2021/01/17 00:30:23;;;;;;;1999.90;999.90;;;;;;;;;;5043424;28;20409;-78
2021/01/17 00:32:49;;;;;;;1999.90;999.90;;;;;;;;;;5040855;28;20032;-79
2021/01/17 00:35:14;;;;;;;1999.90;999.90;;;;;;;;;;5042874;28;20113;-79
2021/01/17 00:37:39;;;;;;;1999.90;999.90;;;;;;;;;;5043548;28;20101;-79
2021/01/17 00:40:05;;;;;;;1999.90;999.90;;;;;;;;;;5039929;28;20095;-79
2021/01/17 00:42:31;;;;;;;1999.90;999.90;;;;;;;;;;5044237;28;20385;-79
2021/01/17 00:44:56;;;;;;;1999.90;999.90;;;;;;;;;;5042583;28;20029;-78
2021/01/17 00:47:22;;;;;;;1999.90;999.90;;;;;;;;;;5045067;28;20079;-79
2021/01/17 00:49:47;;;;;;;1999.90;999.90;;;;;;;;;;5040237;28;20386;-79
2021/01/17 00:52:19;;;;;;;1999.90;999.90;;;;;;;;;;5020784;28;20440;-78
2021/01/17 00:54:45;;;;;;;1999.90;999.90;;;;;;;;;;5025499;28;20453;-78
2021/01/17 00:57:11;;;;;;;1999.90;999.90;;;;;;;;;;5044717;28;20076;-79
2021/01/17 00:59:36;;;;;;;1999.90;999.90;;;;;;;;;;5042259;28;20505;-79
2021/01/17 01:02:02;;;;;;;1999.90;999.90;;;;;;;;;;5047406;28;20425;-79
2021/01/17 01:04:28;;;;;;;1999.90;999.90;;;;;;;;;;5022443;28;20036;-78
2021/01/17 01:06:54;;;;;;;1999.90;999.90;;;;;;;;;;5033525;28;20017;-78
2021/01/17 01:09:19;;;;;;;1999.90;999.90;;;;;;;;;;5037888;28;20017;-80
2021/01/17 01:11:46;;;;;;;1999.90;999.90;;;;;;;;;;5046545;28;20460;-79
2021/01/17 01:14:13;;;;;;;1999.90;999.90;;;;;;;;;;5038754;28;20021;-79
2021/01/17 01:16:39;;;;;;;1999.90;999.90;;;;;;;;;;5039774;28;20406;-79
2021/01/17 01:19:04;;;;;;;1999.90;999.90;;;;;;;;;;5033357;28;20496;-79
2021/01/17 01:21:31;;;;;;;1999.90;999.90;;;;;;;;;;5042062;28;20060;-79
2021/01/17 01:23:57;;;;;;;1999.90;999.90;;;;;;;;;;5037320;28;20036;-79
2021/01/17 01:26:23;;;;;;;1999.90;999.90;;;;;;;;;;5041177;28;20025;-79
2021/01/17 01:28:55;;;;;;;1999.90;999.90;;;;;;;;;;5040541;28;20047;-79
2021/01/17 01:31:21;;;;;;;1999.90;999.90;;;;;;;;;;5041494;28;21017;-80
2021/01/17 01:33:47;;;;;;;1999.90;999.90;;;;;;;;;;5038435;28;20373;-79
2021/01/17 01:36:17;;;;;;;1999.90;999.90;;;;;;;;;;5037128;28;20040;-79
2021/01/17 01:38:42;;;;;;;1999.90;999.90;;;;;;;;;;5040559;28;20053;-79
2021/01/17 01:41:08;;;;;;;1999.90;999.90;;;;;;;;;;5039370;28;20068;-79
2021/01/17 01:43:33;;;;;;;1999.90;999.90;;;;;;;;;;5038701;28;20025;-79
2021/01/17 01:45:59;;;;;;;1999.90;999.90;;;;;;;;;;5042255;28;20033;-79
2021/01/17 01:48:24;;;;;;;1999.90;999.90;;;;;;;;;;5035262;28;20043;-79
2021/01/17 01:50:49;;;;;;;1999.90;999.90;;;;;;;;;;5039911;28;20111;-81
2021/01/17 01:53:15;;;;;;;1999.90;999.90;;;;;;;;;;5039325;28;20067;-80
2021/01/17 01:55:41;;;;;;;1999.90;999.90;;;;;;;;;;5019630;28;20033;-79
2021/01/17 01:58:08;;;;;;;1999.90;999.90;;;;;;;;;;5039470;28;20506;-80
2021/01/17 02:00:33;;;;;;;1999.90;999.90;;;;;;;;;;5043706;28;20100;-80
2021/01/17 02:02:59;;;;;;;1999.90;999.90;;;;;;;;;;5040981;28;20096;-79
2021/01/17 02:05:24;;;;;;;1999.90;999.90;;;;;;;;;;5036763;28;20032;-79
2021/01/17 02:08:02;;;;;;;1999.90;999.90;;;;;;;;;;5041193;28;20397;-79
2021/01/17 02:10:27;;;;;;;1999.90;999.90;;;;;;;;;;5041406;28;20605;-79
2021/01/17 02:12:57;;;;;;;1999.90;999.90;;;;;;;;;;5037868;28;20093;-79
2021/01/17 02:15:31;;;;;;;1999.90;999.90;;;;;;;;;;5039282;28;20033;-79
2021/01/17 02:17:59;;;;;;;1999.90;999.90;;;;;;;;;;5042463;28;20053;-79
2021/01/17 02:20:25;;;;;;;1999.90;999.90;;;;;;;;;;5038701;28;20014;-79
2021/01/17 02:22:50;;;;;;;1999.90;999.90;;;;;;;;;;5040302;28;20541;-79
2021/01/17 02:25:17;;;;;;;1999.90;999.90;;;;;;;;;;5019176;28;20029;-81
2021/01/17 02:27:43;;;;;;;1999.90;999.90;;;;;;;;;;5039096;28;20033;-78
2021/01/17 02:30:10;;;;;;;1999.90;999.90;;;;;;;;;;5036373;28;20037;-78
2021/01/17 02:32:46;;;;;;;1999.90;999.90;;;;;;;;;;5006443;28;20060;-78
2021/01/17 02:35:11;;;;;;;;;;;;;;;;;;5038238;28;20091;-77
2021/01/17 02:37:58;;;;;;;1999.90;999.90;;;;;;;;;;5040624;28;20348;-79
2021/01/17 02:40:34;;;;;;;1999.90;999.90;;;;;;;;;;5044488;28;20029;-79
2021/01/17 02:43:01;;;;;;;1999.90;999.90;;;;;;;;;;5044197;28;20100;-79
2021/01/17 02:45:26;;;;;;;1999.90;999.90;;;;;;;;;;5040474;28;20033;-80
2021/01/17 02:47:52;;;;;;;1999.90;999.90;;;;;;;;;;5039617;28;20025;-80
2021/01/17 02:50:17;;;;;;;1999.90;999.90;;;;;;;;;;5044240;28;20024;-79
2021/01/17 02:52:47;;;;;;;1999.90;999.90;;;;;;;;;;5040607;28;20047;-79
2021/01/17 02:55:13;;;;;;;1999.90;999.90;;;;;;;;;;5042141;28;20063;-79
2021/01/17 02:57:40;;;;;;;1999.90;999.90;;;;;;;;;;5036383;28;20450;-80
2021/01/17 03:00:09;;;;;;;1999.90;999.90;;;;;;;;;;5036401;28;20105;-80
2021/01/17 03:02:56;;;;;;;1999.90;999.90;;;;;;;;;;5021555;28;20036;-79
2021/01/17 03:05:22;;;;;;;1999.90;999.90;;;;;;;;;;5023507;28;20043;-77
2021/01/17 03:07:49;;;;;;;1999.90;999.90;;;;;;;;;;5038996;28;20017;-79
2021/01/17 03:10:16;;;;;;;1999.90;999.90;;;;;;;;;;5037114;28;20037;-80
2021/01/17 03:12:41;;;;;;;1999.90;999.90;;;;;;;;;;5041378;28;20396;-80
2021/01/17 03:15:09;;;;;;;1999.90;999.90;;;;;;;;;;5037109;28;20037;-81
2021/01/17 03:17:37;;;;;;;1999.90;999.90;;;;;;;;;;5040341;28;20082;-80
2021/01/17 03:20:03;;;;;;;1999.90;999.90;;;;;;;;;;5038166;28;20117;-80
2021/01/17 03:22:30;;;;;;;1999.90;999.90;;;;;;;;;;5038346;28;20386;-79
2021/01/17 03:24:56;;;;;;;1999.90;999.90;;;;;;;;;;5036720;28;20028;-80
2021/01/17 03:27:21;;;;;;;1999.90;999.90;;;;;;;;;;5039767;28;20032;-82
2021/01/17 03:29:47;;;;;;;1999.90;999.90;;;;;;;;;;5039389;28;20056;-80
2021/01/17 03:32:12;;;;;;;1999.90;999.90;;;;;;;;;;5038622;28;20116;-79
2021/01/17 03:34:38;;;;;;;1999.90;999.90;;;;;;;;;;5047852;28;20060;-80
2021/01/17 03:37:06;;;;;;;1999.90;999.90;;;;;;;;;;5047390;28;20024;-80
2021/01/17 03:39:32;;;;;;;1999.90;999.90;;;;;;;;;;5044902;28;20033;-80
2021/01/17 03:41:57;;;;;;;1999.90;999.90;;;;;;;;;;5046128;28;20622;-80
2021/01/17 03:44:23;;;;;;;1999.90;999.90;;;;;;;;;;5051274;28;20091;-79
2021/01/17 03:46:48;;;;;;;1999.90;999.90;;;;;;;;;;5032094;28;20029;-80
2021/01/17 03:49:15;;;;;;;1999.90;999.90;;;;;;;;;;5045647;28;20053;-80
2021/01/17 03:51:40;;;;;;;1999.90;999.90;;;;;;;;;;5049666;28;20102;-80
2021/01/17 03:54:05;;;;;;;1999.90;999.90;;;;;;;;;;5048356;28;20500;-80
2021/01/17 03:56:31;;;;;;;1999.90;999.90;;;;;;;;;;5040970;28;20037;-80
2021/01/17 03:58:56;;;;;;;1999.90;999.90;;;;;;;;;;5055485;28;20052;-80
2021/01/17 04:01:23;;;;;;;1999.90;999.90;;;;;;;;;;5069012;28;20073;-81
2021/01/17 04:03:48;;;;;;;1999.90;999.90;;;;;;;;;;5066214;28;20029;-80
2021/01/17 04:06:13;;;;;;;1999.90;999.90;;;;;;;;;;5070508;28;20013;-79
2021/01/17 04:08:39;;;;;;;1999.90;999.90;;;;;;;;;;5067861;28;20021;-79
2021/01/17 04:11:04;;;;;;;1999.90;999.90;;;;;;;;;;5065905;28;20043;-80
2021/01/17 04:13:30;;;;;;;1999.90;999.90;;;;;;;;;;5033648;28;20040;-79
2021/01/17 04:15:55;;;;;;;1999.90;999.90;;;;;;;;;;5046736;28;20472;-79
2021/01/17 04:18:21;;;;;;;1999.90;999.90;;;;;;;;;;5044917;28;20076;-80
2021/01/17 04:20:47;;;;;;;1999.90;999.90;;;;;;;;;;5029102;28;20445;-79
2021/01/17 04:23:13;;;;;;;1999.90;999.90;;;;;;;;;;5050678;28;20103;-79
2021/01/17 04:25:38;;;;;;;1999.90;999.90;;;;;;;;;;5038902;28;20029;-79
2021/01/17 04:28:08;;;;;;;1999.90;999.90;;;;;;;;;;5040272;28;20031;-79
2021/01/17 04:30:34;;;;;;;1999.90;999.90;;;;;;;;;;5047966;28;20025;-80
2021/01/17 04:32:59;;;;;;;1999.90;999.90;;;;;;;;;;5028213;28;20037;-79
2021/01/17 04:35:25;;;;;;;1999.90;999.90;;;;;;;;;;5045687;28;20092;-79
2021/01/17 04:37:50;;;;;;;1999.90;999.90;;;;;;;;;;5047039;28;20063;-79
2021/01/17 04:40:19;;;;;;;1999.90;999.90;;;;;;;;;;5061733;28;20009;-80
2021/01/17 04:42:48;;;;;;;1999.90;999.90;;;;;;;;;;5070149;28;20066;-80
2021/01/17 04:45:17;;;;;;;1999.90;999.90;;;;;;;;;;5062651;28;20017;-80
2021/01/17 04:47:44;;;;;;;1999.90;999.90;;;;;;;;;;5060280;28;20033;-80
2021/01/17 04:50:11;;;;;;;1999.90;999.90;;;;;;;;;;5068683;28;20048;-80
2021/01/17 04:52:52;;;;;;;1999.90;999.90;;;;;;;;;;5053432;28;20049;-80
2021/01/17 04:55:22;;;;;;;1999.90;999.90;;;;;;;;;;5049577;28;20021;-80
2021/01/17 04:58:02;;;;;;;1999.90;999.90;;;;;;;;;;5043169;28;20049;-80
2021/01/17 05:00:31;;;;;;;1999.90;999.90;;;;;;;;;;5042754;28;20024;-80
2021/01/17 05:03:18;;;;;;;1999.90;999.90;;;;;;;;;;5048995;28;20025;-80
2021/01/17 05:05:52;;;;;;;1999.90;999.90;;;;;;;;;;5050004;28;20108;-79
2021/01/17 05:08:27;;;;;;;1999.90;999.90;;;;;;;;;;5040950;28;20048;-79
2021/01/17 05:10:58;;;;;;;1999.90;999.90;;;;;;;;;;5043593;28;20071;-79
2021/01/17 05:13:24;;;;;;;1999.90;999.90;;;;;;;;;;5041910;28;20566;-79
2021/01/17 05:15:55;;;;;;;1999.90;999.90;;;;;;;;;;5029287;28;20025;-79
2021/01/17 05:18:22;;;;;;;1999.90;999.90;;;;;;;;;;5042446;28;20029;-80
2021/01/17 05:20:48;;;;;;;1999.90;999.90;;;;;;;;;;5042455;28;20014;-80
2021/01/17 05:23:14;;;;;;;1999.90;999.90;;;;;;;;;;5042482;28;20052;-78
2021/01/17 05:25:41;;;;;;;1999.90;999.90;;;;;;;;;;5046197;28;20048;-80
2021/01/17 05:28:06;;;;;;;1999.90;999.90;;;;;;;;;;5036554;28;20535;-79
2021/01/17 05:30:32;;;;;;;1999.90;999.90;;;;;;;;;;5045721;28;20108;-78
2021/01/17 05:33:04;;;;;;;1999.90;999.90;;;;;;;;;;5042710;28;20062;-79
2021/01/17 05:35:29;;;;;;;1999.90;999.90;;;;;;;;;;5043589;28;20107;-79
2021/01/17 05:37:55;;;;;;;1999.90;999.90;;;;;;;;;;5036980;28;20128;-79
2021/01/17 05:40:21;;;;;;;1999.90;999.90;;;;;;;;;;5047177;28;20040;-79
2021/01/17 05:42:47;;;;;;;1999.90;999.90;;;;;;;;;;5039934;28;20026;-79
2021/01/17 05:45:20;;;;;;;1999.90;999.90;;;;;;;;;;5043233;28;20488;-80
2021/01/17 05:47:55;;;;;;;1999.90;999.90;;;;;;;;;;5038426;28;20022;-80
2021/01/17 05:50:21;;;;;;;1999.90;999.90;;;;;;;;;;5041394;28;20029;-79
2021/01/17 05:52:53;;;;;;;1999.90;999.90;;;;;;;;;;5042258;28;20036;-79
2021/01/17 05:55:27;;;;;;;1999.90;999.90;;;;;;;;;;5037279;28;20029;-79
2021/01/17 05:57:52;;;;;;;1999.90;999.90;;;;;;;;;;5037398;28;20049;-80
2021/01/17 06:00:31;;;;;;;1999.90;999.90;;;;;;;;;;5037065;28;20021;-80
2021/01/17 06:02:57;;;;;;;1999.90;999.90;;;;;;;;;;5042739;28;20427;-80
2021/01/17 06:05:22;;;;;;;1999.90;999.90;;;;;;;;;;5035282;28;20017;-79
2021/01/17 06:07:48;;;;;;;1999.90;999.90;;;;;;;;;;5019445;28;20048;-79
2021/01/17 06:10:20;;;;;;;1999.90;999.90;;;;;;;;;;5037005;28;20028;-79
2021/01/17 06:12:49;;;;;;;1999.90;999.90;;;;;;;;;;5046428;28;20164;-80
2021/01/17 06:15:15;;;;;;;1999.90;999.90;;;;;;;;;;5041608;28;20022;-80
2021/01/17 06:17:45;;;;;;;1999.90;999.90;;;;;;;;;;5036429;28;20044;-80
2021/01/17 06:20:17;;;;;;;1999.90;999.90;;;;;;;;;;5035943;28;20053;-79
2021/01/17 06:22:46;;;;;;;1999.90;999.90;;;;;;;;;;5022503;28;20428;-81
2021/01/17 06:25:14;;;;;;;1999.90;999.90;;;;;;;;;;5039119;28;20463;-80
2021/01/17 06:27:39;;;;;;;1999.90;999.90;;;;;;;;;;5047550;28;20039;-80
2021/01/17 06:30:16;;;;;;;1999.90;999.90;;;;;;;;;;5038909;28;20021;-80
2021/01/17 06:32:44;;;;;;;1999.90;999.90;;;;;;;;;;5045202;28;20048;-80
2021/01/17 06:35:11;;;;;;;1999.90;999.90;;;;;;;;;;5045349;28;20028;-80
2021/01/17 06:37:36;;;;;;;1999.90;999.90;;;;;;;;;;5041985;28;20489;-80
2021/01/17 06:40:02;;;;;;;1999.90;999.90;;;;;;;;;;5039728;28;20029;-79
2021/01/17 06:42:28;;;;;;;1999.90;999.90;;;;;;;;;;5043474;28;20025;-79
2021/01/17 06:44:53;;;;;;;1999.90;999.90;;;;;;;;;;5045982;28;20055;-79
2021/01/17 06:47:23;;;;;;;1999.90;999.90;;;;;;;;;;5043539;28;20040;-80
2021/01/17 06:49:50;;;;;;;1999.90;999.90;;;;;;;;;;5043593;28;20017;-79
2021/01/17 06:52:17;;;;;;;1999.90;999.90;;;;;;;;;;5043570;28;20033;-80
2021/01/17 06:54:47;;;;;;;1999.90;999.90;;;;;;;;;;5021471;28;20013;-80
2021/01/17 06:57:13;;;;;;;1999.90;999.90;;;;;;;;;;5046411;28;20041;-80
2021/01/17 06:59:48;;;;;;;1999.90;999.90;;;;;;;;;;5038948;28;20017;-80
2021/01/17 07:02:14;;;;;;;1999.90;999.90;;;;;;;;;;5042470;28;20025;-80
2021/01/17 07:04:51;;;;;;;1999.90;999.90;;;;;;;;;;5046225;28;20363;-79
2021/01/17 07:07:17;;;;;;;1999.90;999.90;;;;;;;;;;5026539;28;20079;-80
2021/01/17 07:09:49;;;;;;;1999.90;999.90;;;;;;;;;;5035555;28;20462;-79
2021/01/17 07:12:30;;;;;;;1999.90;999.90;;;;;;;;;;5025763;28;20037;-80
2021/01/17 07:15:06;;;;;;;1999.90;999.90;;;;;;;;;;5039170;28;20699;-79
2021/01/17 07:17:31;;;;;;;;;;;;;;;;;;5038536;28;20036;-77
2021/01/17 07:20:00;;;;;;;1999.90;999.90;;;;;;;;;;5042334;28;20277;-80
2021/01/17 07:22:27;;;;;;;1999.90;999.90;;;;;;;;;;5041822;28;20100;-79
2021/01/17 07:24:53;;;;;;;1999.90;999.90;;;;;;;;;;5047596;28;20028;-79
2021/01/17 07:27:37;;;;;;;1999.90;999.90;;;;;;;;;;5046981;28;20028;-79
2021/01/17 07:30:03;;;;;;;1999.90;999.90;;;;;;;;;;5047297;28;20029;-79
2021/01/17 07:32:33;;;;;;;1999.90;999.90;;;;;;;;;;5031309;28;20094;-79
2021/01/17 07:35:05;;;;;;;1999.90;999.90;;;;;;;;;;5046731;28;20022;-79
2021/01/17 07:37:32;;;;;;;1999.90;999.90;;;;;;;;;;5027092;28;20119;-80
2021/01/17 07:39:59;;;;;;;1999.90;999.90;;;;;;;;;;5041219;28;20009;-78
2021/01/17 07:42:25;;;;;;;1999.90;999.90;;;;;;;;;;5040112;28;20021;-79
2021/01/17 07:44:54;;;;;;;1999.90;999.90;;;;;;;;;;5041698;28;20377;-79
2021/01/17 07:47:29;;;;;;;1999.90;999.90;;;;;;;;;;5037159;28;20507;-79
2021/01/17 07:49:56;;;;;;;1999.90;999.90;;;;;;;;;;5038351;28;20174;-78
2021/01/17 07:52:21;;;;;;;1999.90;999.90;;;;;;;;;;5038145;28;20045;-80
2021/01/17 07:54:48;;;;;;;1999.90;999.90;;;;;;;;;;5041306;28;20079;-79
2021/01/17 07:57:17;;;;;;;1999.90;999.90;;;;;;;;;;5021330;28;20044;-79
2021/01/17 07:59:43;;;;;;;1999.90;999.90;;;;;;;;;;5041361;28;20037;-79
2021/01/17 08:02:11;;;;;;;1999.90;999.90;;;;;;;;;;5038693;28;20021;-81
2021/01/17 08:04:46;;;;;;;1999.90;999.90;;;;;;;;;;5038683;28;20033;-81
2021/01/17 08:07:29;;;;;;;1999.90;999.90;;;;;;;;;;5035456;28;20031;-79
2021/01/17 08:09:54;;;;;;;1999.90;999.90;;;;;;;;;;5039151;28;20035;-79
2021/01/17 08:12:30;;;;;;;1999.90;999.90;;;;;;;;;;5039526;28;20032;-80
2021/01/17 08:15:11;;;;;;;1999.90;999.90;;;;;;;;;;5042824;28;20104;-80
2021/01/17 08:17:36;;;;;;;1999.90;999.90;;;;;;;;;;5041545;28;20469;-81
2021/01/17 08:20:03;;;;;;;1999.90;999.90;;;;;;;;;;5038745;28;20041;-78
2021/01/17 08:22:32;;;;;;;1999.90;999.90;;;;;;;;;;5039134;28;20086;-80
2021/01/17 08:24:58;;;;;;;1999.90;999.90;;;;;;;;;;5038095;28;20029;-81
2021/01/17 08:27:42;;;;;;;1999.90;999.90;;;;;;;;;;5044820;28;20493;-84
2021/01/17 08:30:11;;;;;;;1999.90;999.90;;;;;;;;;;5048901;28;20040;-84
2021/01/17 08:32:37;;;;;;;1999.90;999.90;;;;;;;;;;5045623;28;20167;-84
2021/01/17 08:35:15;;;;;;;1999.90;999.90;;;;;;;;;;5052071;28;20150;-86
2021/01/17 08:37:48;;;;;;;1999.90;999.90;;;;;;;;;;5048593;28;20029;-83
2021/01/17 08:40:29;;;;;;;1999.90;999.90;;;;;;;;;;5045988;28;20724;-82
2021/01/17 08:42:55;;;;;;;1999.90;999.90;;;;;;;;;;5048390;28;20518;-82
2021/01/17 08:45:20;;;;;;;1999.90;999.90;;;;;;;;;;5051991;28;20098;-85
2021/01/17 08:48:18;;;;;;;1999.90;999.90;;;;;;;;;;5033317;28;20024;-84
2021/01/17 08:50:44;;;;;;;1999.90;999.90;;;;;;;;;;5042623;28;20044;-83
2021/01/17 08:53:26;;;;;;;1999.90;999.90;;;;;;;;;;5045908;28;20040;-83
2021/01/17 08:55:53;;;;;;;1999.90;999.90;;;;;;;;;;5044317;28;20056;-83
2021/01/17 08:58:25;;;;;;;1999.90;999.90;;;;;;;;;;5029054;28;20045;-81
2021/01/17 09:00:51;;;;;;;1999.90;999.90;;;;;;;;;;5032280;28;20021;-78
2021/01/17 09:03:22;;;;;;;1999.90;999.90;;;;;;;;;;5047410;28;20035;-80
2021/01/17 09:05:48;;;;;;;1999.90;999.90;;;;;;;;;;5047375;28;20501;-80
2021/01/17 09:08:15;;;;;;;1999.90;999.90;;;;;;;;;;5048032;28;20017;-80
2021/01/17 09:10:40;;;;;;;1999.90;999.90;;;;;;;;;;5045420;28;20060;-88
2021/01/17 09:13:06;;;;;;;1999.90;999.90;;;;;;;;;;5047556;28;20059;-87
2021/01/17 09:15:33;;;;;;;1999.90;999.90;;;;;;;;;;5046117;28;20500;-87
2021/01/17 09:18:00;;;;;;;1999.90;999.90;;;;;;;;;;5046661;28;20024;-87
2021/01/17 09:20:26;;;;;;;1999.90;999.90;;;;;;;;;;5044324;28;20100;-85
2021/01/17 09:22:52;;;;;;;1999.90;999.90;;;;;;;;;;5041022;28;20024;-84
2021/01/17 09:25:18;;;;;;;1999.90;999.90;;;;;;;;;;5044614;28;20029;-80
2021/01/17 09:27:43;;;;;;;1999.90;999.90;;;;;;;;;;5041661;28;20017;-81
2021/01/17 09:30:10;;;;;;;1999.90;999.90;;;;;;;;;;5043340;28;20151;-81
2021/01/17 09:32:37;;;;;;;1999.90;999.90;;;;;;;;;;5045038;28;20127;-81
2021/01/17 09:35:07;;;;;;;1999.90;999.90;;;;;;;;;;5045191;28;20162;-81
2021/01/17 09:37:33;;;;;;;1999.90;999.90;;;;;;;;;;5042771;28;20036;-83
2021/01/17 09:39:59;;;;;;;1999.90;999.90;;;;;;;;;;5042001;28;20035;-81
2021/01/17 09:42:26;;;;;;;1999.90;999.90;;;;;;;;;;5043276;28;20037;-80
2021/01/17 09:44:52;;;;;;;1999.90;999.90;;;;;;;;;;5047166;28;20056;-81
2021/01/17 09:47:18;;;;;;;1999.90;999.90;;;;;;;;;;5044346;28;20068;-81
2021/01/17 09:49:44;;;;;;;1999.90;999.90;;;;;;;;;;5044156;28;20028;-81
2021/01/17 09:52:11;;;;;;;1999.90;999.90;;;;;;;;;;5042293;28;20235;-81
2021/01/17 09:54:36;;;;;;;1999.90;999.90;;;;;;;;;;5043974;28;20029;-82
2021/01/17 09:57:11;;;;;;;1999.90;999.90;;;;;;;;;;5044048;28;20110;-81
2021/01/17 09:59:36;;;;;;;1999.90;999.90;;;;;;;;;;5044555;28;20165;-81
2021/01/17 10:02:04;;;;;;;1999.90;999.90;;;;;;;;;;5046132;28;20773;-82
2021/01/17 10:04:30;;;;;;;1999.90;999.90;;;;;;;;;;5040668;28;20037;-81
2021/01/17 10:06:56;;;;;;;1999.90;999.90;;;;;;;;;;5043291;28;20036;-81
2021/01/17 10:09:22;;;;;;;1999.90;999.90;;;;;;;;;;5045393;28;20037;-82
2021/01/17 10:11:58;;;;;;;1999.90;999.90;;;;;;;;;;5042788;28;20032;-82
2021/01/17 10:14:25;;;;;;;1999.90;999.90;;;;;;;;;;5046411;28;20588;-80
2021/01/17 10:16:51;;;;;;;1999.90;999.90;;;;;;;;;;5039495;28;20116;-80
2021/01/17 10:19:21;;;;;;;1999.90;999.90;;;;;;;;;;5043036;28;20499;-81
2021/01/17 10:21:47;;;;;;;1999.90;999.90;;;;;;;;;;5046820;28;20021;-81
2021/01/17 10:24:18;;;;;;;1999.90;999.90;;;;;;;;;;5045247;28;20099;-82
2021/01/17 10:26:44;;;;;;;1999.90;999.90;;;;;;;;;;5044523;28;20037;-82
2021/01/17 10:29:09;;;;;;;1999.90;999.90;;;;;;;;;;5043866;28;20020;-81
2021/01/17 10:31:36;;;;;;;1999.90;999.90;;;;;;;;;;5045016;28;20500;-81
2021/01/17 10:34:02;;;;;;;1999.90;999.90;;;;;;;;;;5045551;28;20059;-80
2021/01/17 10:36:27;;;;;;;1999.90;999.90;;;;;;;;;;5026259;28;20045;-80
2021/01/17 10:38:53;;;;;;;1999.90;999.90;;;;;;;;;;5041792;28;20108;-83
2021/01/17 10:41:28;;;;;;;1999.90;999.90;;;;;;;;;;5039813;28;20056;-81
2021/01/17 10:43:57;;;;;;;1999.90;999.90;;;;;;;;;;5023261;28;20036;-79
2021/01/17 10:46:25;;;;;;;1999.90;999.90;;;;;;;;;;5041958;28;20077;-81
2021/01/17 10:49:17;;;;;;;1999.90;999.90;;;;;;;;;;5039075;28;20048;-84
2021/01/17 10:51:50;;;;;;;1999.90;999.90;;;;;;;;;;5043764;28;20489;-88
2021/01/17 10:54:23;;;;;;;1999.90;999.90;;;;;;;;;;5045021;28;20071;-78
2021/01/17 10:56:49;;;;;;;1999.90;999.90;;;;;;;;;;5050810;28;20439;-80
2021/01/17 10:59:17;;;;;;;1999.90;999.90;;;;;;;;;;5046997;28;20055;-85
2021/01/17 11:01:46;;;;;;;1999.90;999.90;;;;;;;;;;5041807;28;20033;-84
2021/01/17 11:04:15;;;;;;;1999.90;999.90;;;;;;;;;;5048916;28;20021;-85
2021/01/17 11:06:43;;;;;;;1999.90;999.90;;;;;;;;;;5047414;28;20049;-86
2021/01/17 11:09:17;;;;;;;1999.90;999.90;;;;;;;;;;5047669;28;20022;-86
2021/01/17 11:11:52;;;;;;;1999.90;999.90;;;;;;;;;;5046619;28;20025;-84
2021/01/17 11:14:27;;;;;;;1999.90;999.90;;;;;;;;;;5049222;28;20032;-86
2021/01/17 11:16:53;;;;;;;;;;;;;;;;;;5048304;28;20029;-84
2021/01/17 11:19:18;;;;;;;1999.90;999.90;;;;;;;;;;5042595;28;19967;-86
2021/01/17 11:21:47;;;;;;;1999.90;999.90;;;;;;;;;;5040217;28;20083;-87
2021/01/17 11:24:13;;;;;;;1999.90;999.90;;;;;;;;;;5044227;28;20017;-86
2021/01/17 11:26:39;;;;;;;1999.90;999.90;;;;;;;;;;5044150;28;20028;-86
2021/01/17 11:29:06;;;;;;;1999.90;999.90;;;;;;;;;;5042794;28;20018;-86
2021/01/17 11:31:31;;;;;;;1999.90;999.90;;;;;;;;;;5040579;28;20041;-87
2021/01/17 11:33:57;;;;;;;1999.90;999.90;;;;;;;;;;5039906;28;20473;-85
2021/01/17 11:36:26;;;;;;;1999.90;999.90;;;;;;;;;;5040505;28;20045;-87
2021/01/17 11:38:53;;;;;;;1999.90;999.90;;;;;;;;;;5041040;28;20024;-86
2021/01/17 11:41:19;;;;;;;1999.90;999.90;;;;;;;;;;5047372;28;20032;-87
2021/01/17 11:43:45;;;;;;;1999.90;999.90;;;;;;;;;;5043427;28;20045;-86
2021/01/17 11:46:11;;;;;;;1999.90;999.90;;;;;;;;;;5044786;28;20056;-86
2021/01/17 11:48:37;;;;;;;1999.90;999.90;;;;;;;;;;5044680;28;20052;-87
2021/01/17 11:51:04;;;;;;;1999.90;999.90;;;;;;;;;;5045570;28;20033;-86
2021/01/17 11:53:29;;;;;;;1999.90;999.90;;;;;;;;;;5045070;28;20055;-87
2021/01/17 11:55:55;;;;;;;1999.90;999.90;;;;;;;;;;5042369;28;20080;-85
2021/01/17 11:58:21;;;;;;;1999.90;999.90;;;;;;;;;;5042535;28;20524;-85
2021/01/17 12:00:47;;;;;;;1999.90;999.90;;;;;;;;;;5040987;28;20071;-84
2021/01/17 12:03:22;;;;;;;1999.90;999.90;;;;;;;;;;5047410;28;20075;-84
2021/01/17 12:06:07;;;;;;;1999.90;999.90;;;;;;;;;;5044058;28;20026;-86
2021/01/17 12:08:51;;;;;;;1999.90;999.90;;;;;;;;;;5046943;28;21541;-80
2021/01/17 12:11:29;;;;;;;1999.90;999.90;;;;;;;;;;5044724;28;20486;-83
2021/01/17 12:13:54;;;;;;;1999.90;999.90;;;;;;;;;;5025287;28;20037;-84
2021/01/17 12:16:30;;;;;;;1999.90;999.90;;;;;;;;;;5042894;28;20449;-84
2021/01/17 12:18:57;;;;;;;1999.90;999.90;;;;;;;;;;5044515;28;20033;-84
2021/01/17 12:21:23;;;;;;;1999.90;999.90;;;;;;;;;;5045111;28;20033;-84
2021/01/17 12:23:48;;;;;;;1999.90;999.90;;;;;;;;;;5052499;28;20033;-84
2021/01/17 12:26:15;;;;;;;1999.90;999.90;;;;;;;;;;5060448;28;20048;-85
2021/01/17 12:28:41;;;;;;;1999.90;999.90;;;;;;;;;;5046833;28;20500;-84
2021/01/17 12:31:08;;;;;;;1999.90;999.90;;;;;;;;;;5025754;28;20013;-83
2021/01/17 12:33:34;;;;;;;1999.90;999.90;;;;;;;;;;5039381;28;20125;-84
2021/01/17 12:35:59;;;;;;;1999.90;999.90;;;;;;;;;;5040197;28;20100;-85
2021/01/17 12:38:25;;;;;;;1999.90;999.90;;;;;;;;;;5046083;28;20033;-84
2021/01/17 12:40:50;;;;;;;1999.90;999.90;;;;;;;;;;5044101;28;20062;-85
2021/01/17 12:43:16;;;;;;;1999.90;999.90;;;;;;;;;;5050188;28;20033;-85
2021/01/17 12:45:41;;;;;;;1999.90;999.90;;;;;;;;;;5045573;28;20022;-84
2021/01/17 12:48:06;;;;;;;1999.90;999.90;;;;;;;;;;5046051;28;20040;-84
2021/01/17 12:50:32;;;;;;;1999.90;999.90;;;;;;;;;;5050836;28;20026;-84
2021/01/17 12:52:58;;;;;;;1999.90;999.90;;;;;;;;;;5050495;28;20080;-84
2021/01/17 12:55:23;;;;;;;1999.90;999.90;;;;;;;;;;5049076;28;20021;-84
2021/01/17 12:57:49;;;;;;;1999.90;999.90;;;;;;;;;;5056778;28;20053;-84
2021/01/17 13:00:14;;;;;;;1999.90;999.90;;;;;;;;;;5041452;28;20101;-80
2021/01/17 13:02:40;;;;;;;1999.90;999.90;;;;;;;;;;5058863;28;20122;-84
2021/01/17 13:05:05;;;;;;;1999.90;999.90;;;;;;;;;;5035607;28;20024;-82
2021/01/17 13:07:31;;;;;;;1999.90;999.90;;;;;;;;;;5059304;28;20053;-83
2021/01/17 13:09:56;;;;;;;1999.90;999.90;;;;;;;;;;5048902;28;20535;-85
2021/01/17 13:12:22;;;;;;;1999.90;999.90;;;;;;;;;;5048302;28;20049;-85
2021/01/17 13:14:48;;;;;;;1999.90;999.90;;;;;;;;;;5040931;28;20017;-84
2021/01/17 13:17:13;;;;;;;1999.90;999.90;;;;;;;;;;5044998;28;20396;-84
2021/01/17 13:19:39;;;;;;;1999.90;999.90;;;;;;;;;;5025726;28;20009;-84
2021/01/17 13:22:04;;;;;;;1999.90;999.90;;;;;;;;;;5049471;28;20104;-84
2021/01/17 13:24:29;;;;;;;1999.90;999.90;;;;;;;;;;5051155;28;20405;-84
2021/01/17 13:26:55;;;;;;;1999.90;999.90;;;;;;;;;;5036008;28;20095;-84
2021/01/17 13:29:20;;;;;;;1999.90;999.90;;;;;;;;;;5041100;28;20029;-85
2021/01/17 13:31:47;;;;;;;1999.90;999.90;;;;;;;;;;5048598;28;20029;-86
2021/01/17 13:34:12;;;;;;;1999.90;999.90;;;;;;;;;;5029177;28;20591;-85
2021/01/17 13:36:38;;;;;;;1999.90;999.90;;;;;;;;;;5044125;28;20116;-85
2021/01/17 13:39:03;;;;;;;1999.90;999.90;;;;;;;;;;5038588;28;20018;-85
2021/01/17 13:41:29;;;;;;;1999.90;999.90;;;;;;;;;;5040556;28;20029;-85
2021/01/17 13:43:54;;;;;;;1999.90;999.90;;;;;;;;;;5048825;28;20070;-85
2021/01/17 13:46:20;;;;;;;1999.90;999.90;;;;;;;;;;5046021;28;20033;-85